createdAt,value
2023-03-17T00:01:36.501Z,1.80
2023-03-17T00:04:03.180Z,1.63
2023-03-17T00:06:31.909Z,2.00
2023-03-17T00:08:58.571Z,1.75
2023-03-17T00:11:27.673Z,1.90
2023-03-17T00:13:54.580Z,1.60
2023-03-17T00:16:27.233Z,1.70
2023-03-17T00:18:55.494Z,1.83
2023-03-17T00:21:28.087Z,1.52
2023-03-17T00:23:56.236Z,1.70
2023-03-17T00:26:24.291Z,1.40
2023-03-17T00:28:51.852Z,1.75
2023-03-17T00:31:21.402Z,1.88
2023-03-17T00:33:50.067Z,1.80
2023-03-17T00:36:26.139Z,1.77
2023-03-17T00:38:52.804Z,1.77
2023-03-17T00:41:20.381Z,1.80
2023-03-17T00:43:47.010Z,2.40
2023-03-17T00:46:14.985Z,1.70
2023-03-17T00:48:43.535Z,2.13
2023-03-17T00:51:10.790Z,1.60
2023-03-17T00:53:38.893Z,1.95
2023-03-17T00:56:14.861Z,1.70
2023-03-17T00:58:42.170Z,1.60
2023-03-17T01:01:09.193Z,1.55
2023-03-17T01:03:35.873Z,1.65
2023-03-17T01:06:05.678Z,1.60
2023-03-17T01:08:32.856Z,1.65
2023-03-17T01:10:59.721Z,1.50
2023-03-17T01:13:26.424Z,1.60
2023-03-17T01:15:53.253Z,1.30
2023-03-17T01:18:22.865Z,1.90
2023-03-17T01:20:50.722Z,1.70
2023-03-17T01:23:17.929Z,1.77
2023-03-17T01:25:45.396Z,1.60
2023-03-17T01:28:18.082Z,1.67
2023-03-17T01:30:45.646Z,1.50
2023-03-17T01:33:14.855Z,1.50
2023-03-17T01:35:43.865Z,1.50
2023-03-17T01:38:11.546Z,1.80
2023-03-17T01:40:44.253Z,2.20
2023-03-17T01:43:11.046Z,1.92
2023-03-17T01:46:15.259Z,1.52
2023-03-17T01:49:06.362Z,1.50
2023-03-17T01:51:44.742Z,1.50
2023-03-17T01:54:17.148Z,1.98
2023-03-17T01:56:49.031Z,1.70
2023-03-17T01:59:22.712Z,1.38
2023-03-17T02:01:52.810Z,1.40
2023-03-17T02:04:20.896Z,1.70
2023-03-17T02:06:58.317Z,1.70
2023-03-17T02:09:27.656Z,1.70
2023-03-17T02:11:55.721Z,1.60
2023-03-17T02:14:22.430Z,1.55
2023-03-17T02:16:49.420Z,1.70
2023-03-17T02:19:16.174Z,1.42
2023-03-17T02:21:46.316Z,1.70
2023-03-17T02:24:20.875Z,1.83
2023-03-17T02:26:49.730Z,1.52
2023-03-17T02:29:19.104Z,1.60
2023-03-17T02:31:45.712Z,1.52
2023-03-17T02:34:12.507Z,1.60
2023-03-17T02:36:39.101Z,1.83
2023-03-17T02:39:06.000Z,1.58
2023-03-17T02:41:33.023Z,1.45
2023-03-17T02:43:59.993Z,1.27
2023-03-17T02:46:27.244Z,1.77
2023-03-17T02:48:55.646Z,1.60
2023-03-17T02:51:22.360Z,1.60
2023-03-17T02:53:48.930Z,1.80
2023-03-17T02:56:15.580Z,1.52
2023-03-17T02:58:42.320Z,1.60
2023-03-17T03:01:09.728Z,1.55
2023-03-17T03:03:36.422Z,1.45
2023-03-17T03:06:03.318Z,1.50
2023-03-17T03:08:30.332Z,1.80
2023-03-17T03:10:57.132Z,1.50
2023-03-17T03:13:23.756Z,1.50
2023-03-17T03:15:50.476Z,1.35
2023-03-17T03:18:17.775Z,1.40
2023-03-17T03:20:44.965Z,1.52
2023-03-17T03:23:11.919Z,1.55
2023-03-17T03:25:39.053Z,1.23
2023-03-17T03:28:08.190Z,1.75
2023-03-17T03:30:36.927Z,1.60
2023-03-17T03:33:04.764Z,1.75
2023-03-17T03:35:31.756Z,1.50
2023-03-17T03:37:58.755Z,1.42
2023-03-17T03:40:26.273Z,1.50
2023-03-17T03:42:53.114Z,1.75
2023-03-17T03:45:19.772Z,1.60
2023-03-17T03:47:46.536Z,1.45
2023-03-17T03:50:14.716Z,1.30
2023-03-17T03:52:41.623Z,1.70
2023-03-17T03:55:09.084Z,1.50
2023-03-17T03:57:35.931Z,1.70
2023-03-17T04:00:03.252Z,1.42
2023-03-17T04:02:31.053Z,1.60
2023-03-17T04:04:57.989Z,1.70
2023-03-17T04:07:24.829Z,1.60
2023-03-17T04:09:51.434Z,1.67
2023-03-17T04:12:18.281Z,1.48
2023-03-17T04:14:45.212Z,1.40
2023-03-17T04:17:14.064Z,1.48
2023-03-17T04:19:40.826Z,1.30
2023-03-17T04:22:09.133Z,1.58
2023-03-17T04:24:38.012Z,1.63
2023-03-17T04:27:06.106Z,1.60
2023-03-17T04:29:32.935Z,1.45
2023-03-17T04:31:59.850Z,1.25
2023-03-17T04:34:27.362Z,1.40
2023-03-17T04:36:54.255Z,1.38
2023-03-17T04:39:20.919Z,1.40
2023-03-17T04:41:47.529Z,1.60
2023-03-17T04:44:14.255Z,1.60
2023-03-17T04:46:41.008Z,1.70
2023-03-17T04:49:08.484Z,1.42
2023-03-17T04:51:36.908Z,1.45
2023-03-17T04:54:04.182Z,1.48
2023-03-17T04:56:31.978Z,1.33
2023-03-17T04:58:58.928Z,1.48
2023-03-17T05:01:26.291Z,1.30
2023-03-17T05:03:53.008Z,1.27
2023-03-17T05:06:20.036Z,1.38
2023-03-17T05:08:46.985Z,1.40
2023-03-17T05:11:14.418Z,1.60
2023-03-17T05:13:41.205Z,1.35
2023-03-17T05:16:09.329Z,1.45
2023-03-17T05:18:36.501Z,1.60
2023-03-17T05:21:04.491Z,1.45
2023-03-17T05:23:31.454Z,1.30
2023-03-17T05:25:58.445Z,1.50
2023-03-17T05:28:25.107Z,1.35
2023-03-17T05:30:52.167Z,1.67
2023-03-17T05:33:20.165Z,1.45
2023-03-17T05:35:47.319Z,1.40
2023-03-17T05:38:16.191Z,1.40
2023-03-17T05:40:43.605Z,1.30
2023-03-17T05:43:10.343Z,1.33
2023-03-17T05:45:37.709Z,1.27
2023-03-17T05:48:04.910Z,1.70
2023-03-17T05:50:32.697Z,1.73
2023-03-17T05:52:59.560Z,1.33
2023-03-17T05:55:27.329Z,1.50
2023-03-17T05:57:54.063Z,1.40
2023-03-17T06:00:21.660Z,1.60
2023-03-17T06:02:48.469Z,1.60
2023-03-17T06:05:15.220Z,1.50
2023-03-17T06:07:52.917Z,1.55
2023-03-17T06:10:22.619Z,1.38
2023-03-17T06:12:49.378Z,1.60
2023-03-17T06:15:17.057Z,1.45
2023-03-17T06:17:43.919Z,1.48
2023-03-17T06:20:11.836Z,1.30
2023-03-17T06:22:44.034Z,1.60
2023-03-17T06:25:15.723Z,1.48
2023-03-17T06:27:42.704Z,1.48
2023-03-17T06:30:10.276Z,1.40
2023-03-17T06:32:37.248Z,1.67
2023-03-17T06:35:05.523Z,1.58
2023-03-17T06:37:32.372Z,1.45
2023-03-17T06:40:00.951Z,1.70
2023-03-17T06:42:28.198Z,1.90
2023-03-17T06:44:55.695Z,1.80
2023-03-17T06:47:25.454Z,1.50
2023-03-17T06:49:52.448Z,2.00
2023-03-17T06:52:19.219Z,1.80
2023-03-17T06:54:45.791Z,1.88
2023-03-17T06:57:12.754Z,1.60
2023-03-17T06:59:40.479Z,2.00
2023-03-17T07:02:07.222Z,1.50
2023-03-17T07:04:35.317Z,1.80
2023-03-17T07:07:03.254Z,1.52
2023-03-17T07:09:29.824Z,1.90
2023-03-17T07:11:56.401Z,1.92
2023-03-17T07:14:23.139Z,1.80
2023-03-17T07:16:50.402Z,1.90
2023-03-17T07:19:17.074Z,1.70
2023-03-17T07:21:45.966Z,1.77
2023-03-17T07:24:13.610Z,1.63
2023-03-17T07:26:40.221Z,2.08
2023-03-17T07:29:08.365Z,1.75
2023-03-17T07:31:38.837Z,1.55
2023-03-17T07:34:06.688Z,1.90
2023-03-17T07:36:34.113Z,2.10
2023-03-17T07:39:04.030Z,1.48
2023-03-17T07:41:30.934Z,1.52
2023-03-17T07:43:57.669Z,2.10
2023-03-17T07:46:24.679Z,2.00
2023-03-17T07:48:51.728Z,1.80
2023-03-17T07:51:21.617Z,1.92
2023-03-17T07:53:50.170Z,1.83
2023-03-17T07:56:17.867Z,1.75
2023-03-17T07:58:47.181Z,1.63
2023-03-17T08:01:13.850Z,1.90
2023-03-17T08:03:41.642Z,1.70
2023-03-17T08:06:09.858Z,2.05
2023-03-17T08:08:36.993Z,2.03
2023-03-17T08:11:05.521Z,1.80
2023-03-17T08:13:32.763Z,1.75
2023-03-17T08:15:59.910Z,1.70
2023-03-17T08:18:26.683Z,2.10
2023-03-17T08:20:53.409Z,1.70
2023-03-17T08:23:20.622Z,1.88
2023-03-17T08:25:47.908Z,2.40
2023-03-17T08:28:18.053Z,2.10
2023-03-17T08:30:45.092Z,2.05
2023-03-17T08:33:11.856Z,2.30
2023-03-17T08:35:41.689Z,1.67
2023-03-17T08:38:09.148Z,1.83
2023-03-17T08:40:37.207Z,2.13
2023-03-17T08:43:04.382Z,1.70
2023-03-17T08:45:31.558Z,1.55
2023-03-17T08:47:58.448Z,1.90
2023-03-17T08:50:25.521Z,2.25
2023-03-17T08:52:52.730Z,2.20
2023-03-17T08:55:20.091Z,1.90
2023-03-17T08:57:47.380Z,2.10
2023-03-17T09:00:16.978Z,2.10
2023-03-17T09:02:44.079Z,1.98
2023-03-17T09:05:16.639Z,2.17
2023-03-17T09:07:44.100Z,1.77
2023-03-17T09:10:11.766Z,1.90
2023-03-17T09:12:38.786Z,1.92
2023-03-17T09:15:07.800Z,1.83
2023-03-17T09:17:34.752Z,1.85
2023-03-17T09:20:01.468Z,2.03
2023-03-17T09:22:28.068Z,2.20
2023-03-17T09:24:54.706Z,1.70
2023-03-17T09:27:21.413Z,2.25
2023-03-17T09:29:48.061Z,1.92
2023-03-17T09:32:16.055Z,2.00
2023-03-17T09:34:42.995Z,2.03
2023-03-17T09:37:09.965Z,1.75
2023-03-17T09:39:36.752Z,2.17
2023-03-17T09:42:18.711Z,2.15
2023-03-17T09:45:24.267Z,2.08
2023-03-17T09:48:31.365Z,1.70
2023-03-17T09:50:58.179Z,2.30
2023-03-17T09:53:36.050Z,1.95
2023-03-17T09:56:12.369Z,2.00
2023-03-17T09:58:46.141Z,2.17
2023-03-17T10:01:13.588Z,2.15
2023-03-17T10:03:40.466Z,2.25
2023-03-17T10:06:30.387Z,2.28
2023-03-17T10:09:12.033Z,2.10
2023-03-17T10:11:51.011Z,2.17
2023-03-17T10:14:27.262Z,2.45
2023-03-17T10:17:01.934Z,2.15
2023-03-17T10:19:28.441Z,2.28
2023-03-17T10:22:00.910Z,2.20
2023-03-17T10:24:31.029Z,2.15
2023-03-17T10:27:04.891Z,2.08
2023-03-17T10:29:32.569Z,2.05
2023-03-17T10:32:05.970Z,2.40
2023-03-17T10:34:36.678Z,2.38
2023-03-17T10:37:12.333Z,2.20
2023-03-17T10:39:47.785Z,2.45
2023-03-17T10:42:25.636Z,2.45
2023-03-17T10:45:13.387Z,2.38
2023-03-17T10:47:44.842Z,2.20
2023-03-17T10:50:34.747Z,2.30
2023-03-17T10:53:09.334Z,2.75
2023-03-17T10:55:39.035Z,2.20
2023-03-17T10:58:13.760Z,2.38
2023-03-17T11:00:57.873Z,2.30
2023-03-17T11:03:31.315Z,2.70
2023-03-17T11:06:03.992Z,2.47
2023-03-17T11:08:33.003Z,2.30
2023-03-17T11:10:59.608Z,2.25
2023-03-17T11:13:30.605Z,2.45
2023-03-17T11:16:22.411Z,2.50
2023-03-17T11:18:54.404Z,2.30
2023-03-17T11:21:34.776Z,2.20
2023-03-17T11:24:10.754Z,2.40
2023-03-17T11:26:55.374Z,2.38
2023-03-17T11:29:34.121Z,2.50
2023-03-17T11:32:19.000Z,2.75
2023-03-17T11:35:18.789Z,2.72
2023-03-17T11:38:20.282Z,3.25
2023-03-17T11:41:10.979Z,2.55
2023-03-17T11:43:55.902Z,2.60
2023-03-17T11:46:29.557Z,2.70
2023-03-17T11:48:58.941Z,2.78
2023-03-17T11:51:56.723Z,2.92
2023-03-17T11:54:44.728Z,2.78
2023-03-17T11:57:35.328Z,3.10
2023-03-17T12:00:07.109Z,2.85
2023-03-17T12:02:42.836Z,2.85
2023-03-17T12:05:11.727Z,2.80
2023-03-17T12:07:55.910Z,2.90
2023-03-17T12:10:36.410Z,2.65
2023-03-17T12:13:31.120Z,2.67
2023-03-17T12:16:04.477Z,2.67
2023-03-17T12:19:11.571Z,2.92
2023-03-17T12:21:45.687Z,2.70
2023-03-17T12:24:32.618Z,2.80
2023-03-17T12:27:15.022Z,3.00
2023-03-17T12:29:50.140Z,2.50
2023-03-17T12:32:24.362Z,2.63
2023-03-17T12:34:57.059Z,2.95
2023-03-17T12:37:25.983Z,2.67
2023-03-17T12:40:24.553Z,3.30
2023-03-17T12:43:02.099Z,2.55
2023-03-17T12:45:52.601Z,2.67
2023-03-17T12:49:04.380Z,2.50
2023-03-17T12:51:40.994Z,2.50
2023-03-17T12:54:21.467Z,2.65
2023-03-17T12:56:49.591Z,3.00
2023-03-17T12:59:25.998Z,2.63
2023-03-17T13:01:58.912Z,2.95
2023-03-17T13:04:32.320Z,2.53
2023-03-17T13:07:22.757Z,2.63
2023-03-17T13:10:10.690Z,2.47
2023-03-17T13:12:39.896Z,2.80
2023-03-17T13:15:28.262Z,3.22
2023-03-17T13:18:16.252Z,2.90
2023-03-17T13:21:04.236Z,2.58
2023-03-17T13:23:48.014Z,2.60
2023-03-17T13:26:19.068Z,3.03
2023-03-17T13:28:51.886Z,2.78
2023-03-17T13:31:27.478Z,2.80
2023-03-17T13:33:56.751Z,2.53
2023-03-17T13:36:50.996Z,2.55
2023-03-17T13:40:17.371Z,2.63
2023-03-17T13:43:27.490Z,3.13
2023-03-17T13:46:13.137Z,2.50
2023-03-17T13:48:40.969Z,2.70
2023-03-17T13:51:22.761Z,3.13
2023-03-17T13:53:56.683Z,2.67
2023-03-17T13:56:41.553Z,3.00
2023-03-17T13:59:14.983Z,2.60
2023-03-17T14:01:51.399Z,2.72
2023-03-17T14:04:25.030Z,2.50
2023-03-17T14:06:54.804Z,2.53
2023-03-17T14:09:52.254Z,3.08
2023-03-17T14:15:08.728Z,2.80
2023-03-17T14:17:42.878Z,2.88
2023-03-17T14:20:15.663Z,2.88
2023-03-17T14:22:45.909Z,2.70
2023-03-17T14:25:24.933Z,2.85
2023-03-17T14:27:54.133Z,2.70
2023-03-17T14:30:29.706Z,3.38
2023-03-17T14:33:29.671Z,3.17
2023-03-17T14:35:59.315Z,2.85
2023-03-17T14:38:35.249Z,2.78
2023-03-17T14:41:14.132Z,2.80
2023-03-17T14:43:41.951Z,2.50
2023-03-17T14:46:16.648Z,3.13
2023-03-17T14:48:47.207Z,2.55
2023-03-17T14:51:36.635Z,3.35
2023-03-17T14:54:27.468Z,2.67
2023-03-17T14:57:02.301Z,2.80
2023-03-17T14:59:40.694Z,2.70
2023-03-17T15:02:34.244Z,2.58
2023-03-17T15:05:24.630Z,2.80
2023-03-17T15:07:51.842Z,2.97
2023-03-17T15:10:24.912Z,2.83
2023-03-17T15:13:04.492Z,2.67
2023-03-17T15:15:41.565Z,2.83
2023-03-17T15:18:15.266Z,2.80
2023-03-17T15:20:43.895Z,2.70
2023-03-17T15:23:19.872Z,3.30
2023-03-17T15:25:51.224Z,2.78
2023-03-17T15:28:20.729Z,3.05
2023-03-17T15:30:52.486Z,3.20
2023-03-17T15:33:23.980Z,3.20
2023-03-17T15:35:51.096Z,2.90
2023-03-17T15:38:17.969Z,3.45
2023-03-17T15:40:44.835Z,3.80
2023-03-17T15:43:15.583Z,3.03
2023-03-17T15:45:43.936Z,3.67
2023-03-17T15:48:20.574Z,3.17
2023-03-17T15:50:49.135Z,3.58
2023-03-17T15:53:15.995Z,4.10
2023-03-17T15:55:42.776Z,3.63
2023-03-17T15:58:09.730Z,3.90
2023-03-17T16:00:36.704Z,3.50
2023-03-17T16:03:13.140Z,3.70
2023-03-17T16:08:13.167Z,3.47
2023-03-17T16:10:40.606Z,3.50
2023-03-17T16:13:07.451Z,4.25
2023-03-17T16:15:38.697Z,4.03
2023-03-17T16:18:10.355Z,3.65
2023-03-17T16:20:45.353Z,4.00
2023-03-17T16:23:24.110Z,3.90
2023-03-17T16:25:52.634Z,3.97
2023-03-17T16:28:23.701Z,4.60
2023-03-17T16:30:51.967Z,3.83
2023-03-17T16:33:23.766Z,4.72
2023-03-17T16:35:55.920Z,3.60
2023-03-17T16:38:25.146Z,3.47
2023-03-17T16:40:54.221Z,3.78
2023-03-17T16:43:33.833Z,3.42
2023-03-17T16:46:03.180Z,3.70
2023-03-17T16:48:31.033Z,3.25
2023-03-17T16:50:58.370Z,3.55
2023-03-17T16:53:25.638Z,3.45
2023-03-17T16:55:53.944Z,3.58
2023-03-17T16:58:26.541Z,3.50
2023-03-17T17:00:57.460Z,3.80
2023-03-17T17:03:24.250Z,3.60
2023-03-17T17:05:51.321Z,3.50
2023-03-17T17:08:18.148Z,3.50
2023-03-17T17:10:44.783Z,3.40
2023-03-17T17:13:12.463Z,4.00
2023-03-17T17:15:39.953Z,3.50
2023-03-17T17:18:21.963Z,4.13
2023-03-17T17:20:52.236Z,3.33
2023-03-17T17:23:24.082Z,4.10
2023-03-17T17:25:51.538Z,4.13
2023-03-17T17:28:22.363Z,3.97
2023-03-17T17:30:50.824Z,3.95
2023-03-17T17:33:18.423Z,3.80
2023-03-17T17:35:45.715Z,3.03
2023-03-17T17:38:26.745Z,3.38
2023-03-17T17:40:55.009Z,4.00
2023-03-17T17:43:22.477Z,3.97
2023-03-17T17:45:49.212Z,3.70
2023-03-17T17:48:22.649Z,3.88
2023-03-17T17:50:49.649Z,3.45
2023-03-17T17:53:18.059Z,3.63
2023-03-17T17:55:46.635Z,3.20
2023-03-17T17:58:17.668Z,3.47
2023-03-17T18:00:44.841Z,3.65
2023-03-17T18:03:12.030Z,4.30
2023-03-17T18:05:39.091Z,3.85
2023-03-17T18:08:05.862Z,4.15
2023-03-17T18:10:33.414Z,4.00
2023-03-17T18:13:00.438Z,3.75
2023-03-17T18:15:27.914Z,3.55
2023-03-17T18:17:55.288Z,4.07
2023-03-17T18:20:23.341Z,3.70
2023-03-17T18:22:50.875Z,4.57
2023-03-17T18:25:19.154Z,3.85
2023-03-17T18:27:47.392Z,3.80
2023-03-17T18:30:27.092Z,3.58
2023-03-17T18:32:57.278Z,3.67
2023-03-17T18:35:27.148Z,3.95
2023-03-17T18:37:55.391Z,3.40
2023-03-17T18:40:22.002Z,3.20
2023-03-17T18:42:48.673Z,3.55
2023-03-17T18:45:15.987Z,3.50
2023-03-17T18:47:43.650Z,3.28
2023-03-17T18:50:13.430Z,3.28
2023-03-17T18:52:41.517Z,3.65
2023-03-17T18:55:09.260Z,3.55
2023-03-17T18:57:35.936Z,3.42
2023-03-17T19:00:06.726Z,3.70
2023-03-17T19:02:33.421Z,3.35
2023-03-17T19:05:00.135Z,3.80
2023-03-17T19:07:26.881Z,3.55
2023-03-17T19:09:53.538Z,4.05
2023-03-17T19:12:20.404Z,3.78
2023-03-17T19:14:47.328Z,3.97
2023-03-17T19:17:13.883Z,3.35
2023-03-17T19:19:41.425Z,4.15
2023-03-17T19:22:08.360Z,3.50
2023-03-17T19:24:37.140Z,3.53
2023-03-17T19:27:04.725Z,3.60
2023-03-17T19:29:32.496Z,3.50
2023-03-17T19:31:59.491Z,2.92
2023-03-17T19:34:27.318Z,3.15
2023-03-17T19:36:54.326Z,2.92
2023-03-17T19:39:21.701Z,2.70
2023-03-17T19:41:50.088Z,3.00
2023-03-17T19:44:16.824Z,2.90
2023-03-17T19:46:43.441Z,2.72
2023-03-17T19:49:11.721Z,2.70
2023-03-17T19:51:38.346Z,2.30
2023-03-17T19:54:05.434Z,2.30
2023-03-17T19:56:32.220Z,2.33
2023-03-17T19:58:58.863Z,2.13
2023-03-17T20:01:26.169Z,2.10
2023-03-17T20:03:52.842Z,1.92
2023-03-17T20:06:20.602Z,2.75
2023-03-17T20:08:47.242Z,2.30
2023-03-17T20:11:13.994Z,3.70
2023-03-17T20:13:40.959Z,2.78
2023-03-17T20:16:08.932Z,2.00
2023-03-17T20:18:36.182Z,1.83
2023-03-17T20:21:05.737Z,2.00
2023-03-17T20:23:32.699Z,1.90
2023-03-17T20:25:59.939Z,2.05
2023-03-17T20:28:27.726Z,2.10
2023-03-17T20:31:00.544Z,2.38
2023-03-17T20:33:27.879Z,2.13
2023-03-17T20:35:54.810Z,1.85
2023-03-17T20:38:21.427Z,2.50
2023-03-17T20:40:48.203Z,1.98
2023-03-17T20:43:15.196Z,1.83
2023-03-17T20:45:42.073Z,2.00
2023-03-17T20:48:10.728Z,2.30
2023-03-17T20:50:38.986Z,2.25
2023-03-17T20:53:05.661Z,2.13
2023-03-17T20:55:32.293Z,2.13
2023-03-17T20:57:59.951Z,2.03
2023-03-17T21:00:27.064Z,1.92
2023-03-17T21:02:55.668Z,2.38
2023-03-17T21:05:25.058Z,1.95
2023-03-17T21:07:52.764Z,1.98
2023-03-17T21:10:19.619Z,2.17
2023-03-17T21:12:46.539Z,2.30
2023-03-17T21:15:14.712Z,2.30
2023-03-17T21:17:42.404Z,2.00
2023-03-17T21:20:12.189Z,2.45
2023-03-17T21:22:40.163Z,2.15
2023-03-17T21:25:09.780Z,1.90
2023-03-17T21:27:38.060Z,2.53
2023-03-17T21:30:12.056Z,2.03
2023-03-17T21:32:39.905Z,1.98
2023-03-17T21:35:08.035Z,2.10
2023-03-17T21:37:35.388Z,2.03
2023-03-17T21:40:02.099Z,2.10
2023-03-17T21:42:29.170Z,2.47
2023-03-17T21:44:55.936Z,2.05
2023-03-17T21:47:22.568Z,2.00
2023-03-17T21:49:49.157Z,2.03
2023-03-17T21:52:16.080Z,2.10
2023-03-17T21:54:42.661Z,2.10
2023-03-17T21:57:11.774Z,2.15
2023-03-17T21:59:38.722Z,2.30
2023-03-17T22:02:05.700Z,2.10
2023-03-17T22:04:32.249Z,1.92
2023-03-17T22:06:59.091Z,1.90
2023-03-17T22:09:26.205Z,1.90
2023-03-17T22:11:53.981Z,2.20
2023-03-17T22:14:20.883Z,1.58
2023-03-17T22:16:50.840Z,2.15
2023-03-17T22:19:20.631Z,1.92
2023-03-17T22:21:48.078Z,2.42
2023-03-17T22:24:14.775Z,2.38
2023-03-17T22:26:42.224Z,2.10
2023-03-17T22:29:09.148Z,2.10
2023-03-17T22:31:36.383Z,1.90
2023-03-17T22:34:04.299Z,2.15
2023-03-17T22:36:31.876Z,3.00
2023-03-17T22:38:59.501Z,2.45
2023-03-17T22:41:29.135Z,3.00
2023-03-17T22:43:56.034Z,2.05
2023-03-17T22:46:22.802Z,2.10
2023-03-17T22:48:50.232Z,2.00
2023-03-17T22:51:19.774Z,2.00
2023-03-17T22:53:46.535Z,1.95
2023-03-17T22:56:15.005Z,2.60
2023-03-17T22:58:42.220Z,1.80
2023-03-17T23:01:12.253Z,2.20
2023-03-17T23:03:39.985Z,1.95
2023-03-17T23:06:09.084Z,4.05
2023-03-17T23:08:38.442Z,2.00
2023-03-17T23:11:12.570Z,2.22
2023-03-17T23:13:41.561Z,2.25
2023-03-17T23:16:09.091Z,1.95
2023-03-17T23:18:36.579Z,2.08
2023-03-17T23:21:04.572Z,1.73
2023-03-17T23:23:31.795Z,2.42
2023-03-17T23:25:58.924Z,1.60
2023-03-17T23:28:26.149Z,3.08
2023-03-17T23:30:54.069Z,2.05
2023-03-17T23:33:22.911Z,1.75
2023-03-17T23:35:51.502Z,2.95
2023-03-17T23:38:22.361Z,2.30
2023-03-17T23:40:49.388Z,2.53
2023-03-17T23:43:16.338Z,2.40
2023-03-17T23:45:43.859Z,2.25
2023-03-17T23:48:11.782Z,2.38
2023-03-17T23:50:41.042Z,2.05
2023-03-17T23:53:07.884Z,2.58
2023-03-17T23:55:34.929Z,2.10
2023-03-17T23:58:01.566Z,2.20
